Time;durP1;ratioP1;P1;durP2;ratioP2;P2;SDS_P1;SDS_P2;PMS_P1;PMS_P2;Temp;Humidity;BMP_temperature;BMP_pressure;BME280_temperature;BME280_humidity;BME280_pressure;Samples;Min_cycle;Max_cycle;Signal;HPM_P1;HPM_P2
2022/06/06 00:00:45;;;;;;;9.45;6.03;;;;;;;14.65;55.06;100827.06;4957783;28;20039;-77
2022/06/06 00:03:11;;;;;;;8.63;4.63;;;;;;;14.60;55.21;100815.97;4955699;28;20057;-78
2022/06/06 00:05:41;;;;;;;6.65;5.80;;;;;;;14.49;55.77;100816.56;4943219;28;20035;-80
2022/06/06 00:08:07;;;;;;;5.32;4.70;;;;;;;14.68;55.15;100803.19;4950921;28;20055;-79
2022/06/06 00:10:32;;;;;;;6.18;5.05;;;;;;;14.67;55.11;100801.50;4968435;28;20030;-80
2022/06/06 00:12:58;;;;;;;10.45;5.80;;;;;;;14.65;55.26;100791.06;4968543;28;20397;-79
2022/06/06 00:15:23;;;;;;;8.25;5.85;;;;;;;14.55;55.54;100793.41;4955721;28;20471;-76
2022/06/06 00:17:49;;;;;;;5.38;4.88;;;;;;;14.81;55.20;100792.78;4965492;28;20046;-77
2022/06/06 00:20:16;;;;;;;7.18;5.72;;;;;;;14.86;55.05;100790.75;4956394;28;20035;-80
2022/06/06 00:22:42;;;;;;;7.20;5.63;;;;;;;14.83;55.13;100783.88;4939248;28;21010;-80
2022/06/06 00:25:09;;;;;;;8.93;5.90;;;;;;;14.86;55.19;100780.22;4954380;28;20108;-79
2022/06/06 00:27:35;;;;;;;7.40;5.40;;;;;;;14.88;55.01;100768.69;4951389;28;20050;-77
2022/06/06 00:30:00;;;;;;;8.77;6.15;;;;;;;14.86;55.30;100767.09;4958103;28;20065;-80
2022/06/06 00:35:11;;;;;;;8.07;6.57;;;;;;;14.91;55.36;100757.94;4968022;28;20074;-82
2022/06/06 00:37:39;;;;;;;7.85;5.47;;;;;;;14.94;55.27;100757.75;4956576;28;20397;-79
2022/06/06 00:40:09;;;;;;;9.55;6.93;;;;;;;14.90;55.56;100752.78;4954952;28;20649;-79
2022/06/06 00:42:43;;;;;;;8.98;6.63;;;;;;;14.97;55.28;100751.50;4952771;28;20042;-79
2022/06/06 00:45:29;;;;;;;7.90;6.60;;;;;;;15.02;55.35;100738.88;4957377;28;20027;-77
2022/06/06 00:48:22;;;;;;;8.73;6.07;;;;;;;14.99;55.42;100733.78;4965131;28;20074;-79
2022/06/06 00:50:57;;;;;;;12.80;6.90;;;;;;;14.97;55.89;100726.00;4940653;28;20067;-77
2022/06/06 00:53:43;;;;;;;12.18;6.45;;;;;;;15.00;55.94;100727.59;4965977;28;20446;-78
2022/06/06 00:56:26;;;;;;;8.95;6.43;;;;;;;15.15;55.58;100718.78;4955121;28;20085;-79
2022/06/06 00:58:57;;;;;;;13.27;8.27;;;;;;;15.17;55.49;100714.25;4965788;28;20050;-78
2022/06/06 01:01:24;;;;;;;10.32;8.20;;;;;;;14.87;56.61;100716.13;4938707;28;20026;-80
2022/06/06 01:03:49;;;;;;;11.73;7.75;;;;;;;15.20;55.76;100715.84;4962449;28;20061;-76
2022/06/06 01:06:18;;;;;;;8.32;6.45;;;;;;;15.31;55.47;100713.44;4957742;28;20038;-81
2022/06/06 01:08:46;;;;;;;12.02;7.78;;;;;;;15.34;55.64;100718.50;4954333;28;20058;-80
2022/06/06 01:11:12;;;;;;;8.40;6.95;;;;;;;15.44;55.30;100712.63;4955146;28;20039;-80
2022/06/06 01:13:41;;;;;;;10.48;7.40;;;;;;;15.46;55.23;100709.00;4944262;28;20047;-78
2022/06/06 01:16:32;;;;;;;8.60;7.22;;;;;;;15.40;55.60;100701.47;4939524;28;20067;-77
2022/06/06 01:19:02;;;;;;;9.43;7.82;;;;;;;15.35;55.71;100704.41;4953170;28;20053;-79
2022/06/06 01:21:43;;;;;;;12.77;8.68;;;;;;;15.37;55.74;100701.66;4968024;28;21027;-78
2022/06/06 01:24:29;;;;;;;9.55;7.63;;;;;;;15.41;55.66;100697.03;4969909;28;20107;-78
2022/06/06 01:27:15;;;;;;;10.45;7.97;;;;;;;15.41;55.79;100695.25;4970794;28;20337;-79
2022/06/06 01:29:46;;;;;;;10.60;7.93;;;;;;;15.36;56.17;100694.69;4955663;28;20110;-77
2022/06/06 01:32:18;;;;;;;9.95;8.23;;;;;;;15.40;56.12;100688.31;4954506;28;20043;-77
2022/06/06 01:34:44;;;;;;;16.40;9.07;;;;;;;15.38;56.58;100690.19;4955788;28;20085;-80
2022/06/06 01:37:41;;;;;;;18.05;11.13;;;;;;;15.30;57.17;100679.28;4956605;28;21376;-78
2022/06/06 01:40:11;;;;;;;14.63;9.27;;;;;;;15.31;57.27;100678.34;4956622;28;20053;-78
2022/06/06 01:42:46;;;;;;;13.65;10.13;;;;;;;15.29;57.32;100683.72;4955613;28;20628;-75
2022/06/06 01:45:14;;;;;;;11.93;10.15;;;;;;;15.21;57.43;100674.56;4955453;28;20038;-78
2022/06/06 01:47:49;;;;;;;14.57;10.05;;;;;;;15.23;57.43;100675.34;4953937;28;20051;-77
2022/06/06 01:50:16;;;;;;;14.60;10.90;;;;;;;15.17;57.65;100666.88;4936098;28;20035;-78
2022/06/06 01:52:56;;;;;;;14.30;11.20;;;;;;;15.05;58.03;100665.00;4953700;28;20046;-77
2022/06/06 01:55:25;;;;;;;18.63;12.40;;;;;;;14.84;58.91;100667.19;4965422;28;20034;-77
2022/06/06 01:57:53;;;;;;;17.85;11.60;;;;;;;14.96;58.68;100669.03;4964352;28;20288;-79
2022/06/06 02:00:19;;;;;;;16.17;12.00;;;;;;;14.98;58.62;100663.69;4951821;28;20529;-80
2022/06/06 02:02:45;;;;;;;16.23;12.15;;;;;;;14.93;58.81;100660.50;4961944;28;20083;-77
2022/06/06 02:05:12;;;;;;;17.33;12.07;;;;;;;14.95;58.75;100658.63;4954603;28;20066;-77
2022/06/06 02:07:39;;;;;;;16.90;12.93;;;;;;;14.96;58.78;100650.63;4949467;28;20107;-77
2022/06/06 02:10:08;;;;;;;17.58;13.95;;;;;;;14.86;59.05;100659.19;4955253;28;20342;-79
2022/06/06 02:12:34;;;;;;;15.90;12.43;;;;;;;14.81;59.44;100655.97;4966899;28;20044;-77
2022/06/06 02:14:59;;;;;;;15.90;13.18;;;;;;;14.93;58.85;100649.97;4954436;28;20101;-77
2022/06/06 02:17:25;;;;;;;14.90;12.60;;;;;;;14.76;59.79;100646.59;4951693;28;20051;-75
2022/06/06 02:19:50;;;;;;;14.88;13.05;;;;;;;14.81;59.42;100650.72;4966935;28;20053;-77
2022/06/06 02:22:16;;;;;;;18.15;13.45;;;;;;;14.89;59.29;100656.38;4956769;28;20122;-76
2022/06/06 02:24:41;;;;;;;19.52;14.32;;;;;;;14.88;59.27;100657.28;4955112;28;20071;-77
2022/06/06 02:27:07;;;;;;;16.60;13.93;;;;;;;14.72;59.81;100655.63;4951712;28;20047;-79
2022/06/06 02:29:32;;;;;;;16.88;13.52;;;;;;;14.59;60.37;100657.31;4964791;28;20149;-78
2022/06/06 02:31:58;;;;;;;14.70;11.75;;;;;;;14.54;60.44;100664.59;4958786;28;20027;-79
2022/06/06 02:34:24;;;;;;;13.10;10.82;;;;;;;14.26;61.29;100663.59;4946341;28;20286;-77
2022/06/06 02:36:49;;;;;;;12.07;8.15;;;;;;;14.37;60.96;100668.22;4941336;28;20031;-78
2022/06/06 02:39:15;;;;;;;6.63;5.68;;;;;;;12.62;64.74;100676.06;4970598;28;20046;-78
2022/06/06 02:41:41;;;;;;;4.85;4.25;;;;;;;12.87;64.07;100678.31;4970714;28;20570;-78
2022/06/06 02:44:07;;;;;;;4.70;3.60;;;;;;;13.46;61.84;100676.00;4952714;28;20050;-77
2022/06/06 02:46:32;;;;;;;4.13;3.10;;;;;;;13.07;62.59;100685.13;4956002;28;20034;-77
2022/06/06 02:48:58;;;;;;;3.40;2.88;;;;;;;12.84;62.85;100681.09;4952534;28;20549;-78
2022/06/06 02:51:23;;;;;;;2.80;2.28;;;;;;;12.63;63.67;100687.44;4944621;28;20057;-77
2022/06/06 02:53:50;;;;;;;2.80;2.13;;;;;;;12.38;64.58;100696.56;4958836;28;20122;-77
2022/06/06 02:56:16;;;;;;;2.72;1.88;;;;;;;12.75;63.18;100699.09;4944421;28;20027;-80
2022/06/06 02:58:41;;;;;;;4.72;2.70;;;;;;;12.49;63.86;100698.59;4956646;28;20055;-76
2022/06/06 03:01:09;;;;;;;2.05;1.55;;;;;;;12.82;62.64;100708.31;4970551;28;20031;-77
2022/06/06 03:03:36;;;;;;;3.17;1.95;;;;;;;12.52;63.43;100714.19;4938222;28;21017;-78
2022/06/06 03:06:04;;;;;;;2.40;1.75;;;;;;;12.45;63.76;100718.06;4952159;28;20643;-76
2022/06/06 03:08:49;;;;;;;3.25;1.80;;;;;;;12.95;62.03;100706.75;4952223;28;20061;-78
2022/06/06 03:11:37;;;;;;;3.10;2.42;;;;;;;12.20;64.17;100705.31;4966634;28;20478;-79
2022/06/06 03:14:31;;;;;;;4.38;2.28;;;;;;;12.16;64.22;100709.03;4952697;28;20178;-80
2022/06/06 03:23:08;;;;;;;3.17;2.53;;;;;;;11.77;64.78;100716.09;4964162;28;20046;-79
2022/06/06 03:25:40;;;;;;;2.85;2.53;;;;;;;12.49;63.05;100735.31;4966422;28;20071;-77
2022/06/06 03:28:13;;;;;;;5.35;2.38;;;;;;;12.40;63.31;100730.53;4963496;28;20069;-77
2022/06/06 03:30:56;;;;;;;3.95;2.28;;;;;;;12.53;62.45;100721.13;4967892;28;20105;-78
2022/06/06 03:33:45;;;;;;;4.85;2.28;;;;;;;12.52;62.34;100734.31;4948605;28;20047;-78
2022/06/06 03:36:28;;;;;;;3.03;2.40;;;;;;;12.20;63.34;100745.47;4960285;28;20085;-78
2022/06/06 03:39:21;;;;;;;2.95;2.53;;;;;;;12.21;63.36;100734.06;4964193;28;20498;-78
2022/06/06 03:41:51;;;;;;;3.22;2.00;;;;;;;12.40;62.21;100736.63;4962915;28;20107;-77
2022/06/06 03:44:37;;;;;;;2.85;2.15;;;;;;;12.20;62.72;100750.72;4952699;28;20062;-78
2022/06/06 03:47:02;;;;;;;4.38;2.33;;;;;;;12.06;63.05;100745.28;4957168;28;20042;-79
2022/06/06 03:50:01;;;;;;;3.28;2.38;;;;;;;12.37;62.05;100751.66;4956662;28;20134;-77
2022/06/06 03:52:35;;;;;;;2.35;1.70;;;;;;;12.69;60.78;100756.19;4964993;28;20047;-77
2022/06/06 03:55:12;;;;;;;3.92;2.20;;;;;;;12.18;62.45;100763.03;4967360;28;20129;-77
2022/06/06 03:57:39;;;;;;;2.70;2.00;;;;;;;12.69;60.88;100764.03;4952384;28;20061;-76
2022/06/06 04:00:12;;;;;;;4.63;3.08;;;;;;;12.07;62.17;100783.69;4947902;28;20033;-77
2022/06/06 04:02:45;;;;;;;2.63;2.35;;;;;;;12.16;62.34;100774.53;4929722;28;20104;-78
2022/06/06 04:05:19;;;;;;;4.47;2.40;;;;;;;12.47;61.43;100771.25;4939288;28;20041;-77
2022/06/06 04:07:44;;;;;;;4.70;2.22;;;;;;;12.41;61.62;100771.56;4966796;28;20062;-78
2022/06/06 04:10:11;;;;;;;2.85;2.50;;;;;;;12.86;59.92;100773.66;4950179;28;20034;-79
2022/06/06 04:12:56;;;;;;;2.10;1.42;;;;;;;12.68;60.50;100778.03;4953034;28;20055;-78
2022/06/06 04:15:51;;;;;;;2.25;1.77;;;;;;;12.34;60.91;100771.00;4954301;28;20191;-79
2022/06/06 04:18:32;;;;;;;3.03;1.98;;;;;;;12.87;59.48;100777.13;4954004;28;20617;-78
2022/06/06 04:21:25;;;;;;;2.95;1.98;;;;;;;12.38;60.64;100790.91;4954344;28;20042;-78
2022/06/06 04:23:53;;;;;;;2.67;1.58;;;;;;;12.21;61.04;100791.72;4948650;28;20054;-78
2022/06/06 04:26:19;;;;;;;2.10;1.83;;;;;;;12.06;61.43;100792.44;4955590;28;20150;-77
2022/06/06 04:28:58;;;;;;;2.17;1.70;;;;;;;11.81;62.04;100793.59;4949819;28;20122;-77
2022/06/06 04:31:35;;;;;;;5.35;1.73;;;;;;;12.20;60.96;100795.25;4968625;28;20031;-77
2022/06/06 04:34:37;;;;;;;2.22;1.50;;;;;;;12.03;60.95;100809.16;4952083;28;20046;-78
2022/06/06 04:37:47;;;;;;;2.90;1.40;;;;;;;12.22;60.60;100788.19;4952595;28;20041;-78
2022/06/06 04:40:36;;;;;;;1.58;0.90;;;;;;;12.29;60.05;100807.09;4958802;28;20027;-79
2022/06/06 04:43:37;;;;;;;2.05;1.20;;;;;;;12.30;60.49;100806.13;4953943;28;20038;-78
2022/06/06 04:46:14;;;;;;;2.10;1.15;;;;;;;11.41;62.75;100824.16;4913821;28;20027;-78
2022/06/06 04:48:41;;;;;;;3.25;1.00;;;;;;;12.29;60.14;100821.03;4947877;28;20055;-78
2022/06/06 04:51:08;;;;;;;1.95;1.48;;;;;;;12.32;60.05;100819.19;4942203;28;20054;-77
2022/06/06 04:53:41;;;;;;;1.60;1.05;;;;;;;12.39;59.97;100812.72;4963998;28;20047;-78
2022/06/06 04:56:08;;;;;;;2.38;1.48;;;;;;;12.65;59.15;100809.66;4937412;28;20576;-79
2022/06/06 04:58:35;;;;;;;4.07;1.38;;;;;;;12.08;60.93;100819.41;4954816;28;20102;-77
2022/06/06 05:01:02;;;;;;;1.52;0.60;;;;;;;12.31;59.90;100815.69;4965774;28;21223;-78
2022/06/06 05:03:28;;;;;;;1.42;0.82;;;;;;;12.06;60.87;100823.88;4936386;28;20043;-76
2022/06/06 05:06:18;;;;;;;2.17;1.10;;;;;;;12.13;60.74;100825.28;4942942;28;20102;-77
2022/06/06 05:09:13;;;;;;;1.70;0.95;;;;;;;12.72;58.95;100830.38;4965870;28;20059;-77
2022/06/06 05:11:44;;;;;;;1.27;0.57;;;;;;;12.52;59.31;100832.16;4955720;28;20082;-79
2022/06/06 05:14:21;;;;;;;2.03;1.20;;;;;;;12.39;59.98;100834.53;4956111;28;20050;-78
2022/06/06 05:17:13;;;;;;;2.17;0.93;;;;;;;12.79;58.63;100837.84;4965346;28;20191;-80
2022/06/06 05:20:08;;;;;;;2.67;0.90;;;;;;;13.10;57.98;100845.00;4956324;28;20043;-79
2022/06/06 05:23:11;;;;;;;1.35;0.73;;;;;;;13.06;57.95;100855.75;4948491;28;20070;-77
2022/06/06 05:25:46;;;;;;;1.95;0.90;;;;;;;12.49;59.33;100851.50;4967198;28;20035;-80
2022/06/06 05:28:20;;;;;;;1.85;0.95;;;;;;;11.93;61.34;100856.78;4959387;28;20047;-80
2022/06/06 05:30:56;;;;;;;1.40;0.88;;;;;;;12.46;59.58;100859.50;4966611;28;20032;-79
2022/06/06 05:33:35;;;;;;;5.55;1.25;;;;;;;11.76;62.46;100871.50;4951977;28;20473;-78
2022/06/06 05:36:38;;;;;;;1.90;1.75;;;;;;;11.74;62.50;100868.09;4950310;28;20114;-79
2022/06/06 05:39:25;;;;;;;1.35;0.63;;;;;;;12.66;59.69;100874.28;4946954;28;20043;-79
2022/06/06 05:42:03;;;;;;;1.02;0.40;;;;;;;12.67;59.47;100876.00;4965770;28;20051;-78
2022/06/06 05:44:39;;;;;;;4.85;1.10;;;;;;;13.10;58.90;100873.88;4968868;28;20412;-79
2022/06/06 05:47:32;;;;;;;2.08;0.52;;;;;;;12.10;61.49;100871.75;4949974;28;20275;-79
2022/06/06 05:50:12;;;;;;;2.03;0.40;;;;;;;12.34;60.93;100872.38;4968283;28;20501;-80
2022/06/06 05:52:55;;;;;;;0.70;0.20;;;;;;;12.42;60.82;100880.69;4967513;28;20043;-78
2022/06/06 05:55:35;;;;;;;0.52;0.20;;;;;;;12.40;60.82;100879.91;4956786;28;20126;-77
2022/06/06 05:58:12;;;;;;;1.05;0.30;;;;;;;12.01;62.15;100889.56;4933703;28;20153;-78
2022/06/06 06:01:01;;;;;;;1.15;0.55;;;;;;;11.95;62.11;100895.09;4939780;28;20492;-77
2022/06/06 06:04:00;;;;;;;1.50;0.70;;;;;;;12.65;60.24;100893.56;4937382;28;20061;-79
2022/06/06 06:06:31;;;;;;;2.38;1.05;;;;;;;12.60;59.99;100890.31;4965636;28;20054;-79
2022/06/06 06:09:16;;;;;;;2.75;2.00;;;;;;;11.78;62.43;100898.50;4956591;28;20043;-78
2022/06/06 06:11:52;;;;;;;3.40;2.08;;;;;;;12.00;61.78;100905.34;4969478;28;20043;-77
2022/06/06 06:14:21;;;;;;;6.28;2.00;;;;;;;11.64;62.58;100906.06;4950577;28;20039;-78
2022/06/06 06:16:52;;;;;;;3.55;2.20;;;;;;;11.81;61.46;100907.97;4955295;28;20043;-78
2022/06/06 06:19:24;;;;;;;5.97;2.50;;;;;;;12.42;60.06;100922.63;4961050;28;20114;-77
2022/06/06 06:21:58;;;;;;;4.03;1.73;;;;;;;12.34;60.04;100930.88;4950738;28;20283;-82
2022/06/06 06:24:29;;;;;;;3.45;2.22;;;;;;;11.65;61.83;100939.19;4959127;28;20110;-80
2022/06/06 06:26:56;;;;;;;3.38;2.70;;;;;;;12.25;60.81;100932.16;4949252;28;20405;-77
2022/06/06 06:29:21;;;;;;;3.20;1.98;;;;;;;11.93;60.32;100930.97;4954010;28;20027;-81
2022/06/06 06:32:24;;;;;;;4.63;2.05;;;;;;;12.13;60.50;100948.41;4943103;28;20098;-79
2022/06/06 06:35:08;;;;;;;4.75;2.00;;;;;;;12.07;60.93;100948.72;4944038;28;20145;-77
2022/06/06 06:37:59;;;;;;;4.57;1.77;;;;;;;11.23;63.21;100940.94;4953226;28;20047;-79
2022/06/06 06:40:52;;;;;;;3.45;1.90;;;;;;;11.36;62.16;100946.50;4968094;28;20039;-77
2022/06/06 06:43:24;;;;;;;5.35;2.42;;;;;;;11.64;61.02;100955.78;4951769;28;20054;-79
2022/06/06 06:46:06;;;;;;;3.97;2.08;;;;;;;11.88;60.81;100949.50;4967847;28;20070;-76
2022/06/06 06:48:41;;;;;;;6.80;1.60;;;;;;;11.72;60.97;100961.56;4933531;28;20583;-79
2022/06/06 06:51:25;;;;;;;4.70;2.13;;;;;;;12.02;60.20;100950.66;4951182;28;20271;-80
2022/06/06 06:54:09;;;;;;;6.32;2.42;;;;;;;12.12;59.39;100957.22;4931763;28;20041;-80
2022/06/06 06:57:19;;;;;;;7.00;3.25;;;;;;;11.73;60.72;100958.03;4956090;28;20041;-80
2022/06/06 06:59:54;;;;;;;7.10;3.65;;;;;;;11.40;61.28;100961.19;4953097;28;20039;-76
2022/06/06 07:09:18;;;;;;;7.53;4.07;;;;;;;12.27;58.28;100982.72;4913420;28;20425;-76
2022/06/06 07:11:50;;;;;;;8.75;3.47;;;;;;;11.38;59.99;100976.09;4957456;28;20050;-77
2022/06/06 07:14:53;;;;;;;6.68;3.90;;;;;;;12.12;58.62;100983.41;4966143;28;20059;-76
2022/06/06 07:17:20;;;;;;;11.20;3.90;;;;;;;11.59;60.10;100984.78;4951282;28;20042;-80
2022/06/06 07:19:58;;;;;;;5.40;3.65;;;;;;;12.12;58.64;101004.38;4956184;28;20035;-77
2022/06/06 07:22:27;;;;;;;8.70;4.70;;;;;;;10.90;61.89;100990.25;4968146;28;20074;-74
2022/06/06 07:24:57;;;;;;;9.73;5.78;;;;;;;10.85;63.21;101000.03;4950190;28;20046;-77
2022/06/06 07:27:22;;;;;;;12.02;6.65;;;;;;;11.88;59.81;101008.91;4954138;28;20053;-78
2022/06/06 07:29:48;;;;;;;8.88;6.35;;;;;;;11.69;60.26;101008.84;4956841;28;20038;-76
2022/06/06 07:32:28;;;;;;;12.38;6.72;;;;;;;11.55;61.00;101004.16;4956901;28;20493;-78
2022/06/06 07:35:22;;;;;;;14.07;8.15;;;;;;;11.63;60.59;101011.72;4959525;28;20031;-76
2022/06/06 07:38:07;;;;;;;12.13;7.15;;;;;;;11.50;60.77;101020.97;4957484;28;20082;-78
2022/06/06 07:40:52;;;;;;;10.43;6.35;;;;;;;12.47;58.74;101020.28;4952723;28;20051;-77
2022/06/06 07:43:28;;;;;;;14.48;6.43;;;;;;;11.63;60.59;101019.56;4972588;28;20105;-77
2022/06/06 07:46:23;;;;;;;12.10;6.35;;;;;;;11.60;61.04;101035.41;4967710;28;20062;-78
2022/06/06 07:48:59;;;;;;;10.20;6.43;;;;;;;11.01;62.65;101019.44;4952775;28;20043;-78
2022/06/06 07:51:48;;;;;;;16.45;7.45;;;;;;;10.90;62.65;101036.47;4967960;28;20034;-78
2022/06/06 07:54:34;;;;;;;14.75;7.57;;;;;;;12.40;59.37;101018.84;4951784;28;20060;-79
2022/06/06 07:57:21;;;;;;;13.68;6.82;;;;;;;12.34;59.04;101022.59;4955544;28;20065;-77
2022/06/06 08:00:06;;;;;;;13.45;7.22;;;;;;;13.41;56.70;101024.59;4952152;28;20211;-77
2022/06/06 08:02:48;;;;;;;9.70;6.10;;;;;;;14.07;53.23;101023.03;4964859;28;20691;-78
2022/06/06 08:05:27;;;;;;;9.27;5.53;;;;;;;15.40;49.74;101006.97;4965564;28;20039;-78
2022/06/06 08:08:19;;;;;;;9.20;6.15;;;;;;;13.94;53.26;101025.44;4949659;28;20047;-77
2022/06/06 08:10:46;;;;;;;13.13;5.10;;;;;;;17.06;45.56;101007.31;4966037;28;20304;-77
2022/06/06 08:13:28;;;;;;;6.95;4.38;;;;;;;17.16;44.57;101032.19;4966852;28;20531;-77
2022/06/06 08:16:03;;;;;;;8.48;4.68;;;;;;;17.79;43.30;101030.66;4950528;28;20544;-78
2022/06/06 08:18:50;;;;;;;6.00;3.90;;;;;;;14.91;48.52;101034.28;4964938;28;20552;-79
2022/06/06 08:21:19;;;;;;;5.40;4.38;;;;;;;15.55;48.48;101034.16;4964572;28;20066;-77
2022/06/06 08:23:45;;;;;;;5.10;3.78;;;;;;;17.75;43.99;101025.69;4965303;28;20054;-76
2022/06/06 08:26:11;;;;;;;9.60;4.85;;;;;;;17.02;43.95;101032.22;4965002;28;20038;-78
2022/06/06 08:28:40;;;;;;;4.70;3.42;;;;;;;18.83;41.08;101032.22;4966512;28;20054;-78
2022/06/06 08:31:07;;;;;;;5.50;3.63;;;;;;;17.26;42.38;101023.66;4950381;28;20122;-78
2022/06/06 08:33:33;;;;;;;3.85;3.30;;;;;;;17.92;41.57;101006.88;4965734;28;20047;-78
2022/06/06 08:36:21;;;;;;;6.82;3.13;;;;;;;20.36;38.39;101033.09;4967787;28;20030;-77
2022/06/06 08:39:18;;;;;;;6.18;3.25;;;;;;;19.06;38.95;101047.31;4970044;28;20057;-79
2022/06/06 08:41:56;;;;;;;4.53;3.45;;;;;;;19.79;37.16;101047.22;4967820;28;20108;-78
2022/06/06 08:44:27;;;;;;;5.53;3.15;;;;;;;18.22;41.19;101048.88;4972038;28;20915;-77
2022/06/06 08:47:00;;;;;;;;;;;;;;;16.27;43.85;101051.00;4954646;28;20153;-78
2022/06/06 08:52:39;;;;;;;7.47;2.90;;;;;;;15.10;47.21;101054.28;4969573;28;20109;-79
2022/06/06 08:55:04;;;;;;;6.15;2.65;;;;;;;15.68;45.92;101058.03;4970317;28;20045;-79
2022/06/06 08:57:45;;;;;;;5.40;2.85;;;;;;;15.03;47.47;101066.94;4948294;28;20043;-79
2022/06/06 09:00:34;;;;;;;7.80;3.33;;;;;;;16.84;44.56;101065.94;4956680;28;20162;-76
2022/06/06 09:03:18;;;;;;;5.63;2.45;;;;;;;15.21;46.75;101057.16;4952627;28;20394;-78
2022/06/06 09:06:15;;;;;;;5.10;2.10;;;;;;;14.98;47.54;101054.03;4965278;28;20043;-77
2022/06/06 09:09:08;;;;;;;5.45;1.88;;;;;;;14.49;47.34;101064.63;4940324;28;20043;-77
2022/06/06 09:11:56;;;;;;;5.03;1.55;;;;;;;13.91;48.44;101055.34;4952444;28;20042;-77
2022/06/06 09:14:40;;;;;;;5.28;2.33;;;;;;;13.86;48.74;101046.00;4967778;28;20410;-76
2022/06/06 09:17:35;;;;;;;2.85;1.77;;;;;;;14.23;48.64;101070.38;4948491;28;20892;-76
2022/06/06 09:20:29;;;;;;;3.25;1.88;;;;;;;14.35;48.18;101062.69;4968936;28;20046;-76
2022/06/06 09:23:32;;;;;;;3.97;2.13;;;;;;;14.34;47.92;101053.13;4965857;28;20123;-78
2022/06/06 09:26:21;;;;;;;4.45;1.65;;;;;;;14.49;47.73;101064.63;4955414;28;20030;-76
2022/06/06 09:29:08;;;;;;;3.55;1.95;;;;;;;14.69;48.86;101062.69;4968793;28;20153;-77
2022/06/06 09:32:02;;;;;;;5.88;1.90;;;;;;;15.72;46.07;101056.91;4959463;28;20747;-78
2022/06/06 09:34:49;;;;;;;4.38;1.33;;;;;;;15.80;45.43;101057.31;4959583;28;20418;-77
2022/06/06 09:37:40;;;;;;;6.13;1.98;;;;;;;16.31;44.04;101052.50;4966223;28;20039;-76
2022/06/06 09:40:18;;;;;;;4.18;2.45;;;;;;;17.96;41.50;101052.44;4959614;28;20512;-78
2022/06/06 09:43:08;;;;;;;5.88;2.00;;;;;;;18.33;40.65;101042.81;4966755;28;20062;-77
2022/06/06 09:45:55;;;;;;;4.53;2.58;;;;;;;19.43;41.14;101044.56;4960289;28;20035;-78
2022/06/06 09:48:43;;;;;;;5.72;2.92;;;;;;;18.51;40.38;101051.25;4979241;28;20043;-75
2022/06/06 09:51:26;;;;;;;5.63;2.70;;;;;;;17.89;40.72;101048.53;4970838;28;20330;-77
2022/06/06 10:00:22;;;;;;;5.90;2.95;;;;;;;15.65;43.95;101048.50;4971278;28;20740;-78
2022/06/06 10:03:05;;;;;;;4.97;2.28;;;;;;;14.97;45.44;101062.03;4954903;28;20047;-75
2022/06/06 10:06:00;;;;;;;4.82;2.25;;;;;;;15.75;44.60;101060.22;4957739;28;20051;-76
2022/06/06 10:08:42;;;;;;;6.95;2.85;;;;;;;16.47;43.86;101059.47;4957507;28;20817;-77
2022/06/06 10:11:38;;;;;;;7.18;2.38;;;;;;;17.18;41.07;101059.34;4959398;28;20516;-77
2022/06/06 10:14:40;;;;;;;5.28;3.08;;;;;;;16.20;43.27;101065.50;4971008;28;20082;-77
2022/06/06 10:17:30;;;;;;;6.50;2.55;;;;;;;16.08;43.71;101061.78;4943152;28;20125;-77
2022/06/06 10:20:17;;;;;;;3.67;2.28;;;;;;;16.48;41.10;101077.81;4974266;28;20054;-76
2022/06/06 10:23:16;;;;;;;5.25;1.65;;;;;;;16.00;41.66;101080.72;4970808;28;20051;-78
2022/06/06 10:26:16;;;;;;;4.18;1.40;;;;;;;13.85;49.09;101086.34;4971428;28;20511;-77
2022/06/06 10:29:05;;;;;;;6.75;1.40;;;;;;;13.71;49.55;101089.66;4930811;28;20054;-76
2022/06/06 10:31:43;;;;;;;5.38;1.52;;;;;;;13.43;51.18;101083.13;4957247;28;20062;-76
2022/06/06 10:34:15;;;;;;;4.78;1.05;;;;;;;14.25;50.13;101090.38;4953634;28;20122;-76
2022/06/06 10:37:07;;;;;;;4.93;1.33;;;;;;;16.13;48.13;101082.59;4969254;28;20039;-78
2022/06/06 10:39:32;;;;;;;2.60;1.02;;;;;;;17.00;45.73;101084.28;4940986;28;20067;-77
2022/06/06 10:42:13;;;;;;;4.18;1.92;;;;;;;17.88;43.32;101074.13;4949412;28;20034;-74
2022/06/06 10:44:57;;;;;;;4.22;1.10;;;;;;;18.03;40.00;101070.44;4962963;28;20228;-77
2022/06/06 10:47:26;;;;;;;1.70;1.40;;;;;;;18.44;40.29;101076.47;4954032;28;20520;-79
2022/06/06 10:49:51;;;;;;;9.27;1.88;;;;;;;18.41;40.48;101072.25;4964864;28;20031;-78
2022/06/06 10:52:52;;;;;;;5.82;1.40;;;;;;;17.71;40.74;101072.59;4957315;28;20039;-77
2022/06/06 10:55:44;;;;;;;2.53;1.08;;;;;;;18.67;39.88;101078.31;4917700;29;20032;-77
2022/06/06 10:58:56;;;;;;;6.15;0.93;;;;;;;19.22;37.83;101054.97;4952607;28;20113;-78
2022/06/06 11:02:03;;;;;;;4.43;0.98;;;;;;;19.85;37.88;101073.28;4964101;28;20042;-77
2022/06/06 11:04:44;;;;;;;5.88;0.65;;;;;;;18.97;37.26;101074.47;4936384;28;20666;-79
2022/06/06 11:07:51;;;;;;;3.15;0.98;;;;;;;19.67;35.76;101063.13;4967922;28;20057;-78
2022/06/06 11:10:41;;;;;;;1.52;0.47;;;;;;;19.65;34.82;101074.81;4967373;28;20088;-78
2022/06/06 11:13:11;;;;;;;1.67;0.52;;;;;;;18.19;36.57;101072.06;4952882;28;20038;-79
2022/06/06 11:15:58;;;;;;;2.17;0.40;;;;;;;19.17;33.94;101075.69;4959217;28;20039;-78
2022/06/06 11:18:32;;;;;;;2.40;0.68;;;;;;;18.72;35.29;101053.34;4955022;28;20043;-78
2022/06/06 11:21:04;;;;;;;3.90;0.85;;;;;;;19.03;35.30;101081.13;4970533;28;20075;-76
2022/06/06 11:23:32;;;;;;;1.60;0.68;;;;;;;18.15;37.02;101081.13;4952885;28;20054;-77
2022/06/06 11:26:28;;;;;;;2.47;0.50;;;;;;;16.00;39.15;101099.19;4958878;28;20043;-76
2022/06/06 11:29:32;;;;;;;1.20;0.70;;;;;;;15.44;44.32;101103.31;4968280;28;20047;-76
2022/06/06 11:32:15;;;;;;;2.65;0.35;;;;;;;15.51;45.25;101095.91;4957603;28;20034;-76
2022/06/06 11:34:43;;;;;;;2.22;0.43;;;;;;;15.00;45.46;101103.13;4972404;28;20433;-77
2022/06/06 11:37:31;;;;;;;2.20;0.22;;;;;;;15.34;42.77;101088.94;4957892;28;21130;-76
2022/06/06 11:40:35;;;;;;;2.10;0.30;;;;;;;15.98;43.67;101095.75;4960776;28;20047;-75
2022/06/06 11:43:38;;;;;;;0.93;0.40;;;;;;;16.25;41.55;101095.06;4972492;28;20043;-77
2022/06/06 11:46:29;;;;;;;2.83;0.55;;;;;;;17.43;40.84;101090.28;4956599;28;22319;-78
2022/06/06 11:49:04;;;;;;;4.18;0.65;;;;;;;17.63;39.54;101093.44;4956289;28;20043;-78
2022/06/06 11:52:04;;;;;;;2.20;0.40;;;;;;;16.63;40.95;101118.25;4956955;28;20038;-76
2022/06/06 11:54:55;;;;;;;1.17;0.55;;;;;;;16.14;43.38;101118.59;4971309;28;20070;-76
2022/06/06 11:57:41;;;;;;;2.13;0.88;;;;;;;16.58;45.27;101117.69;4972959;28;20124;-75
2022/06/06 12:00:11;;;;;;;2.55;1.38;;;;;;;16.02;44.48;101121.94;4963662;28;20069;-76
2022/06/06 12:03:01;;;;;;;5.95;1.08;;;;;;;16.32;43.68;101138.59;4971170;28;20131;-76
2022/06/06 12:05:52;;;;;;;1.98;0.90;;;;;;;14.43;47.46;101161.41;4958890;28;20057;-77
2022/06/06 12:08:48;;;;;;;3.70;0.30;;;;;;;14.06;47.12;101158.00;4956302;28;20047;-77
2022/06/06 12:11:49;;;;;;;1.00;0.20;;;;;;;13.57;47.70;101136.78;4976243;28;20122;-77
2022/06/06 12:14:52;;;;;;;1.80;0.15;;;;;;;13.94;46.10;101139.28;4953404;28;20161;-75
2022/06/06 12:17:49;;;;;;;10.32;3.33;;;;;;;13.86;45.68;101138.81;4956568;28;20054;-77
2022/06/06 12:20:42;;;;;;;1.55;0.10;;;;;;;14.14;45.82;101132.16;4947393;28;20299;-77
2022/06/06 12:23:29;;;;;;;0.30;0.20;;;;;;;14.55;45.78;101129.22;4948938;28;20491;-75
2022/06/06 12:26:17;;;;;;;1.08;0.20;;;;;;;15.16;43.97;101128.50;4965710;28;20046;-75
2022/06/06 12:29:21;;;;;;;5.90;0.40;;;;;;;16.00;41.54;101117.63;4974832;28;20061;-77
2022/06/06 12:32:22;;;;;;;1.50;0.68;;;;;;;17.13;41.68;101123.97;4959406;28;20133;-76
2022/06/06 12:35:03;;;;;;;0.73;0.25;;;;;;;17.80;39.60;101137.25;4960364;28;20050;-76
2022/06/06 12:37:35;;;;;;;0.47;0.25;;;;;;;16.78;40.11;101127.91;4962649;28;20039;-75
2022/06/06 12:40:35;;;;;;;1.27;0.40;;;;;;;16.07;42.10;101112.00;4966252;28;20264;-75
2022/06/06 12:43:07;;;;;;;1.65;0.40;;;;;;;17.90;39.50;101118.97;4881635;28;20072;-77
2022/06/06 12:46:05;;;;;;;2.80;0.68;;;;;;;18.91;37.67;101121.75;4960498;28;20038;-77